Time;durP1;ratioP1;P1;durP2;ratioP2;P2;SDS_P1;SDS_P2;PMS_P1;PMS_P2;Temp;Humidity;BMP_temperature;BMP_pressure;BME280_temperature;BME280_humidity;BME280_pressure;Samples;Min_cycle;Max_cycle;Signal;HPM_P1;HPM_P2
2021/11/03 00:01:27;;;;;;;20.62;13.78;;;;;;;18.26;63.88;100793.74;1735658;82;21002;-60
2021/11/03 00:03:53;;;;;;;20.77;13.90;;;;;;;18.27;63.86;100794.59;1735584;82;21011;-58
2021/11/03 00:06:21;;;;;;;18.65;14.03;;;;;;;18.27;63.93;100799.87;1737176;82;21593;-58
2021/11/03 00:08:48;;;;;;;21.50;14.83;;;;;;;18.25;63.99;100803.91;1734493;82;21525;-56
2021/11/03 00:11:15;;;;;;;21.17;15.50;;;;;;;18.27;63.94;100806.45;1738572;82;21530;-57
2021/11/03 00:13:42;;;;;;;19.32;15.60;;;;;;;18.28;64.08;100798.95;1738400;82;21049;-58
2021/11/03 00:16:08;;;;;;;22.40;14.90;;;;;;;18.27;64.05;100793.28;1723818;82;21049;-56
2021/11/03 00:18:37;;;;;;;21.05;15.40;;;;;;;18.30;64.09;100795.77;1736299;82;21046;-54
2021/11/03 00:21:04;;;;;;;24.35;16.42;;;;;;;18.30;64.00;100795.28;1737703;82;21549;-54
2021/11/03 00:23:31;;;;;;;22.40;16.30;;;;;;;18.33;63.98;100803.49;1738489;82;21074;-59
2021/11/03 00:25:58;;;;;;;21.07;15.63;;;;;;;18.32;63.86;100800.49;1722466;82;21014;-57
2021/11/03 00:28:24;;;;;;;19.80;15.18;;;;;;;18.34;63.85;100800.77;1734298;82;21530;-58
2021/11/03 00:30:54;;;;;;;20.30;15.93;;;;;;;18.35;63.69;100800.31;1734340;82;21182;-58
2021/11/03 00:33:23;;;;;;;22.07;16.17;;;;;;;18.34;63.74;100795.99;1740195;82;21042;-56
2021/11/03 00:35:51;;;;;;;24.30;16.75;;;;;;;18.33;63.77;100801.72;1738517;82;21502;-52
2021/11/03 00:38:19;;;;;;;24.70;16.85;;;;;;;18.33;63.75;100795.59;1735838;82;21460;-53
2021/11/03 00:40:45;;;;;;;22.07;15.72;;;;;;;18.33;63.73;100806.13;1735515;82;20999;-53
2021/11/03 00:43:12;;;;;;;26.33;16.77;;;;;;;18.34;63.75;100807.84;1735226;82;21090;-52
2021/11/03 00:45:38;;;;;;;23.98;17.40;;;;;;;18.34;63.61;100818.39;1735330;82;21022;-57
2021/11/03 00:48:06;;;;;;;24.80;17.10;;;;;;;18.35;63.66;100822.25;1735265;82;21027;-55
2021/11/03 00:50:35;;;;;;;29.60;17.73;;;;;;;18.34;63.62;100820.53;1731833;82;21787;-53
2021/11/03 00:53:03;;;;;;;30.35;19.27;;;;;;;18.35;63.68;100825.34;1738717;82;21526;-54
2021/11/03 00:55:29;;;;;;;24.92;17.60;;;;;;;18.35;63.60;100822.70;1737213;82;21566;-56
2021/11/03 00:57:56;;;;;;;26.60;19.35;;;;;;;18.35;63.62;100827.97;1736273;81;21538;-52
2021/11/03 01:00:23;;;;;;;23.73;17.23;;;;;;;18.34;63.65;100835.51;1737606;82;21047;-53
2021/11/03 01:02:50;;;;;;;26.45;18.62;;;;;;;18.34;63.71;100838.14;1733593;82;21026;-53
2021/11/03 01:05:20;;;;;;;21.55;17.50;;;;;;;18.33;63.63;100829.84;1740798;82;20987;-54
2021/11/03 01:07:47;;;;;;;24.90;17.62;;;;;;;18.33;63.67;100821.94;1737808;82;21025;-53
2021/11/03 01:10:17;;;;;;;23.52;17.92;;;;;;;18.34;63.52;100831.55;1706711;82;20995;-56
2021/11/03 01:12:44;;;;;;;24.50;18.42;;;;;;;18.33;63.61;100835.11;1735464;82;21034;-58
2021/11/03 01:15:15;;;;;;;24.35;17.87;;;;;;;18.33;63.55;100840.37;1726331;82;21078;-55
2021/11/03 01:17:42;;;;;;;24.63;19.05;;;;;;;18.34;63.55;100838.97;1738607;82;20994;-57
2021/11/03 01:20:10;;;;;;;23.90;18.23;;;;;;;18.35;63.52;100850.37;1735718;82;21023;-61
2021/11/03 01:22:37;;;;;;;31.68;19.65;;;;;;;18.36;63.37;100849.45;1735356;82;21014;-53
2021/11/03 01:25:05;;;;;;;29.80;19.60;;;;;;;18.35;63.36;100846.41;1735442;82;20967;-56
2021/11/03 01:27:32;;;;;;;31.48;19.77;;;;;;;18.35;63.41;100860.45;1735464;82;21471;-57
2021/11/03 01:30:01;;;;;;;35.58;20.92;;;;;;;18.34;63.31;100861.85;1735278;82;21034;-56
2021/11/03 01:32:29;;;;;;;32.85;20.80;;;;;;;18.33;63.39;100865.41;1737301;82;21075;-59
2021/11/03 01:34:56;;;;;;;35.45;21.85;;;;;;;18.33;63.41;100861.45;1738721;82;21062;-57
2021/11/03 01:37:23;;;;;;;32.90;20.80;;;;;;;18.33;63.36;100871.98;1738161;82;21026;-53
2021/11/03 01:39:49;;;;;;;35.48;23.22;;;;;;;18.33;63.42;100869.35;1735593;82;20967;-56
2021/11/03 01:42:16;;;;;;;32.98;23.15;;;;;;;18.33;63.38;100874.63;1708264;82;21061;-56
2021/11/03 01:44:43;;;;;;;30.80;22.00;;;;;;;18.33;63.41;100885.16;1739412;82;21013;-56
2021/11/03 01:47:47;;;;;;;30.62;22.48;;;;;;;18.34;63.31;100880.30;1732002;82;21010;-57
2021/11/03 01:50:35;;;;;;;28.17;21.80;;;;;;;18.34;63.27;100876.34;1726612;82;20962;-56
2021/11/03 01:53:20;;;;;;;35.85;21.17;;;;;;;18.33;63.24;100881.20;1735855;82;21014;-53
2021/11/03 01:56:06;;;;;;;34.48;21.75;;;;;;;18.29;63.29;100883.16;1730183;82;21031;-55
2021/11/03 01:58:48;;;;;;;35.65;23.20;;;;;;;18.31;63.23;100883.07;1727322;82;21007;-56
2021/11/03 02:01:15;;;;;;;;;;;;;;;18.31;63.23;100887.88;1727726;82;21042;-53
2021/11/03 02:03:42;;;;;;;33.45;23.80;;;;;;;18.29;63.21;100884.93;1724729;82;20107;-53
2021/11/03 02:06:13;;;;;;;28.77;22.48;;;;;;;18.27;63.16;100884.16;1729209;82;21042;-53
2021/11/03 02:08:42;;;;;;;29.30;22.87;;;;;;;18.26;63.16;100878.52;1727619;82;21043;-53
2021/11/03 02:11:10;;;;;;;37.93;24.87;;;;;;;18.26;62.97;100895.16;1729130;82;21507;-54
2021/11/03 02:13:38;;;;;;;28.00;22.58;;;;;;;18.22;62.82;100886.16;1729153;82;21051;-56
2021/11/03 02:16:06;;;;;;;28.90;22.67;;;;;;;18.21;62.87;100883.16;1717357;82;21007;-57
2021/11/03 02:18:33;;;;;;;29.07;23.87;;;;;;;18.21;62.75;100888.42;1728109;82;21758;-53
2021/11/03 02:21:00;;;;;;;28.73;24.20;;;;;;;18.19;62.78;100892.92;1729236;82;21050;-52
2021/11/03 02:24:06;;;;;;;27.05;23.15;;;;;;;18.19;62.74;100887.66;1729307;82;21031;-53
2021/11/03 02:26:37;;;;;;;26.50;23.30;;;;;;;18.19;62.73;100887.66;1726889;82;21055;-53
2021/11/03 02:29:07;;;;;;;28.70;23.47;;;;;;;18.19;62.62;100891.60;1728720;82;21486;-53
2021/11/03 02:31:41;;;;;;;27.40;22.70;;;;;;;18.17;62.50;100898.73;1729652;82;21526;-56
2021/11/03 02:34:11;;;;;;;27.85;22.37;;;;;;;18.15;62.44;100899.27;1720452;82;21027;-57
2021/11/03 02:36:56;;;;;;;27.70;23.47;;;;;;;18.15;62.40;100901.91;1730620;82;20971;-53
2021/11/03 02:39:43;;;;;;;27.90;23.95;;;;;;;18.13;62.43;100901.99;1725757;82;20999;-54
2021/11/03 02:42:09;;;;;;;26.00;22.85;;;;;;;18.12;62.44;100911.27;1726411;82;21515;-55
2021/11/03 02:44:37;;;;;;;27.77;22.80;;;;;;;18.12;62.40;100912.58;1731095;82;21511;-53
2021/11/03 02:47:05;;;;;;;25.35;22.32;;;;;;;18.11;62.35;100914.38;1723169;82;20960;-59
2021/11/03 02:49:38;;;;;;;29.65;23.32;;;;;;;18.11;62.35;100913.53;1719829;82;21475;-58
2021/11/03 02:52:15;;;;;;;29.05;22.98;;;;;;;18.12;62.14;100920.48;1730526;82;21039;-56
2021/11/03 02:54:42;;;;;;;22.42;20.02;;;;;;;18.10;62.04;100924.97;1626807;87;21054;-54
2021/11/03 02:57:08;;;;;;;23.95;20.23;;;;;;;18.08;61.98;100930.78;1644607;87;21043;-55
2021/11/03 02:59:35;;;;;;;23.35;20.85;;;;;;;18.06;61.95;100926.05;1631362;87;21058;-53
2021/11/03 03:02:02;;;;;;;22.85;20.45;;;;;;;18.05;61.89;100931.81;1630123;87;21110;-53
2021/11/03 03:04:36;;;;;;;25.85;22.25;;;;;;;18.03;61.87;100926.23;1637805;87;21586;-56
2021/11/03 03:07:05;;;;;;;25.97;21.10;;;;;;;18.03;61.87;100930.17;1633041;87;21515;-53
2021/11/03 03:09:31;;;;;;;26.42;23.52;;;;;;;18.01;61.80;100933.34;1632778;87;21035;-59
2021/11/03 03:12:02;;;;;;;26.23;22.58;;;;;;;18.01;61.58;100939.93;1631519;87;21071;-52
2021/11/03 03:14:36;;;;;;;27.70;22.90;;;;;;;17.98;61.40;100950.14;1634413;87;21062;-52
2021/11/03 03:17:05;;;;;;;25.30;22.60;;;;;;;17.97;61.27;100943.64;1637751;87;21038;-51
2021/11/03 03:19:34;;;;;;;25.82;23.12;;;;;;;17.95;61.20;100955.55;1584395;90;21042;-55
2021/11/03 03:22:00;;;;;;;27.00;23.10;;;;;;;17.94;61.21;100959.12;1584265;90;21137;-58
2021/11/03 03:24:28;;;;;;;28.75;25.65;;;;;;;17.93;61.18;100960.52;1583228;90;21097;-56
2021/11/03 03:26:55;;;;;;;27.90;23.83;;;;;;;17.92;61.07;100965.38;1582519;90;21085;-51
2021/11/03 03:29:22;;;;;;;29.00;24.65;;;;;;;17.90;60.89;100962.83;1583753;90;20989;-55
2021/11/03 03:31:49;;;;;;;27.82;24.82;;;;;;;17.88;60.78;100962.91;1597761;88;21115;-55
2021/11/03 03:34:21;;;;;;;32.73;24.67;;;;;;;17.86;60.70;100967.86;1615976;88;21035;-58
2021/11/03 03:36:52;;;;;;;27.70;24.72;;;;;;;17.84;60.59;100971.89;1615621;88;21648;-55
2021/11/03 03:39:20;;;;;;;26.95;24.10;;;;;;;17.80;60.48;100970.78;1613574;88;21047;-55
2021/11/03 03:42:01;;;;;;;27.35;24.45;;;;;;;17.78;60.42;100968.20;1613271;88;21032;-58
2021/11/03 03:44:29;;;;;;;27.75;24.85;;;;;;;17.77;60.32;100964.34;1613307;88;21036;-57
2021/11/03 03:46:56;;;;;;;28.40;24.43;;;;;;;17.74;60.25;100973.22;1611479;88;21079;-57
2021/11/03 03:49:23;;;;;;;28.65;24.50;;;;;;;17.72;60.07;100977.70;1612986;88;21149;-50
2021/11/03 03:51:50;;;;;;;29.07;25.57;;;;;;;17.70;60.01;100988.77;1640008;86;21594;-56
2021/11/03 03:54:16;;;;;;;27.32;24.05;;;;;;;17.68;59.89;100993.74;1652357;86;21569;-56
2021/11/03 03:56:43;;;;;;;27.02;24.15;;;;;;;17.65;59.80;100988.16;1651917;86;21589;-53
2021/11/03 03:59:10;;;;;;;31.07;24.80;;;;;;;17.62;59.78;100994.86;1652902;86;21144;-56
2021/11/03 04:01:38;;;;;;;27.55;23.32;;;;;;;17.60;59.71;100994.08;1650980;86;21058;-54
2021/11/03 04:04:07;;;;;;;28.02;24.77;;;;;;;17.57;59.61;100991.61;1651540;86;21190;-57
2021/11/03 04:06:35;;;;;;;29.55;24.75;;;;;;;17.55;59.58;100993.91;1652218;86;21025;-59
2021/11/03 04:09:04;;;;;;;30.92;25.25;;;;;;;17.51;59.62;101000.24;1652152;86;21150;-52
2021/11/03 04:11:32;;;;;;;28.60;24.98;;;;;;;17.49;59.67;101004.27;1650490;86;21602;-58
2021/11/03 04:14:00;;;;;;;27.07;24.18;;;;;;;17.46;59.72;101001.73;1649268;86;21085;-57
2021/11/03 04:16:27;;;;;;;27.00;24.10;;;;;;;17.44;59.73;101000.95;1683630;84;21054;-56
2021/11/03 04:18:54;;;;;;;27.25;24.27;;;;;;;17.42;59.77;101000.16;1730715;82;21015;-56
2021/11/03 04:21:22;;;;;;;28.65;25.08;;;;;;;17.40;59.80;101006.41;1730302;82;20991;-53
2021/11/03 04:23:50;;;;;;;29.57;25.20;;;;;;;17.38;59.69;101005.17;1728832;82;20975;-56
2021/11/03 04:26:24;;;;;;;27.50;24.45;;;;;;;17.35;59.73;101014.51;1726703;82;21034;-52
2021/11/03 04:28:51;;;;;;;33.33;26.52;;;;;;;17.32;59.66;101010.72;1727299;82;21075;-52
2021/11/03 04:31:18;;;;;;;31.90;25.75;;;;;;;17.30;59.72;101015.65;1727564;82;20972;-56
2021/11/03 04:33:45;;;;;;;32.40;26.02;;;;;;;17.26;59.77;101020.20;1727462;82;21018;-59
2021/11/03 04:36:13;;;;;;;29.80;25.43;;;;;;;17.24;59.76;101026.45;1728279;82;21042;-52
2021/11/03 04:38:39;;;;;;;30.00;26.85;;;;;;;17.21;59.82;101023.48;1730512;82;20995;-53
2021/11/03 04:41:06;;;;;;;31.55;26.35;;;;;;;17.18;59.79;101030.66;1730589;82;21011;-57
2021/11/03 04:43:33;;;;;;;29.87;26.35;;;;;;;17.15;59.75;101030.33;1728477;82;21674;-52
2021/11/03 04:46:00;;;;;;;28.57;25.40;;;;;;;17.14;59.84;101027.78;1729168;82;21491;-56
2021/11/03 04:48:27;;;;;;;28.95;25.65;;;;;;;17.11;59.85;101034.02;1729710;82;21007;-53
2021/11/03 04:50:54;;;;;;;29.48;24.37;;;;;;;17.09;59.77;101035.87;1730657;82;20972;-56
2021/11/03 04:53:22;;;;;;;28.73;25.70;;;;;;;17.08;59.84;101040.75;1730510;82;20979;-53
2021/11/03 04:55:52;;;;;;;29.48;25.48;;;;;;;17.05;59.80;101047.44;1728289;82;21075;-56
2021/11/03 04:58:19;;;;;;;31.05;25.82;;;;;;;17.04;59.93;101058.41;1727549;82;21522;-57
2021/11/03 05:00:49;;;;;;;30.12;26.02;;;;;;;17.03;59.87;101055.86;1727420;82;21543;-53
2021/11/03 05:03:16;;;;;;;29.45;25.10;;;;;;;17.02;59.79;101058.11;1727379;82;21502;-53
2021/11/03 05:05:45;;;;;;;28.65;25.68;;;;;;;17.00;59.80;101055.52;1727216;82;21039;-59
2021/11/03 05:08:12;;;;;;;27.52;24.55;;;;;;;17.00;59.82;101065.20;1728157;82;20967;-56
2021/11/03 05:10:39;;;;;;;28.47;24.70;;;;;;;16.98;59.80;101063.10;1730577;82;21082;-57
2021/11/03 05:13:06;;;;;;;26.93;24.02;;;;;;;16.97;59.82;101065.32;1726382;82;21075;-53
2021/11/03 05:15:34;;;;;;;31.12;24.70;;;;;;;16.97;59.67;101065.32;1722469;82;21490;-53
2021/11/03 05:18:00;;;;;;;26.02;23.25;;;;;;;16.95;59.61;101072.42;1727503;82;21002;-52
2021/11/03 05:20:28;;;;;;;26.40;23.70;;;;;;;16.94;59.63;101078.58;1727911;82;21511;-55
2021/11/03 05:22:54;;;;;;;28.77;24.07;;;;;;;16.93;59.45;101080.83;1730490;82;20983;-56
2021/11/03 05:25:24;;;;;;;27.80;24.82;;;;;;;16.93;59.44;101083.46;1730540;82;21102;-52
2021/11/03 05:27:51;;;;;;;28.50;23.85;;;;;;;16.92;59.28;101093.56;1729203;82;21054;-52
2021/11/03 05:30:19;;;;;;;28.10;22.70;;;;;;;16.91;59.30;101097.13;1728272;82;20975;-54
2021/11/03 05:32:45;;;;;;;28.02;24.45;;;;;;;16.91;59.21;101101.07;1729530;82;20979;-52
2021/11/03 05:35:12;;;;;;;26.40;23.70;;;;;;;16.90;59.18;101103.29;1725423;82;21010;-54
2021/11/03 05:37:39;;;;;;;27.95;24.40;;;;;;;16.91;59.09;101107.64;1732981;82;21019;-52
2021/11/03 05:40:10;;;;;;;27.85;24.55;;;;;;;16.90;58.98;101111.17;1728862;82;20987;-51
2021/11/03 05:42:37;;;;;;;27.07;24.18;;;;;;;16.90;58.84;101112.04;1727284;82;21090;-52
2021/11/03 05:45:05;;;;;;;28.02;25.00;;;;;;;16.91;58.92;101118.16;1716435;82;21051;-57
2021/11/03 05:47:32;;;;;;;28.27;25.23;;;;;;;16.92;58.74;101121.16;1730483;82;21011;-58
2021/11/03 05:49:58;;;;;;;29.60;25.65;;;;;;;16.96;58.63;101118.84;1714181;82;21043;-55
2021/11/03 05:52:26;;;;;;;28.57;25.32;;;;;;;16.98;58.50;101124.88;1729491;82;21050;-56
2021/11/03 05:54:53;;;;;;;29.92;25.37;;;;;;;17.00;58.18;101126.50;1730275;82;21584;-50
2021/11/03 05:57:24;;;;;;;29.65;25.10;;;;;;;17.02;58.15;101135.17;1737354;82;21494;-51
2021/11/03 05:59:52;;;;;;;29.55;26.20;;;;;;;17.07;57.98;101140.25;1734988;82;20975;-55
2021/11/03 06:02:20;;;;;;;29.23;26.05;;;;;;;17.09;57.77;101141.03;1735658;82;21058;-54
2021/11/03 06:04:46;;;;;;;29.10;25.85;;;;;;;17.12;57.59;101148.81;1735439;82;20991;-52
2021/11/03 06:07:14;;;;;;;28.85;25.82;;;;;;;17.14;57.54;101152.23;1735207;82;21082;-51
2021/11/03 06:09:41;;;;;;;31.45;27.20;;;;;;;17.18;57.63;101151.18;1735468;82;21019;-54
2021/11/03 06:12:09;;;;;;;30.62;26.12;;;;;;;17.23;57.49;101154.45;1733710;82;21087;-54
2021/11/03 06:14:35;;;;;;;29.55;26.35;;;;;;;17.28;57.21;101149.86;1735891;82;21014;-51
2021/11/03 06:17:04;;;;;;;33.20;27.13;;;;;;;17.34;57.20;101156.17;1727930;82;21074;-51
2021/11/03 06:19:32;;;;;;;29.25;26.15;;;;;;;17.39;56.66;101162.11;1735623;82;21098;-55
2021/11/03 06:21:58;;;;;;;30.37;27.10;;;;;;;17.44;56.30;101166.69;1737951;81;20994;-51
2021/11/03 06:24:28;;;;;;;30.90;27.48;;;;;;;17.48;56.20;101174.84;1738569;82;21053;-53
2021/11/03 06:26:56;;;;;;;31.73;25.77;;;;;;;17.51;55.96;101170.81;1734642;82;21069;-56
2021/11/03 06:29:22;;;;;;;30.40;27.15;;;;;;;17.55;55.87;101179.41;1738522;82;21657;-54
2021/11/03 06:31:48;;;;;;;32.73;27.32;;;;;;;17.55;55.75;101184.22;1738621;82;21018;-54
2021/11/03 06:34:15;;;;;;;30.12;26.82;;;;;;;17.56;55.70;101184.60;1736013;82;21035;-55
2021/11/03 06:36:41;;;;;;;31.00;27.35;;;;;;;17.55;55.71;101177.65;1735556;82;20995;-57
2021/11/03 06:39:08;;;;;;;32.50;27.73;;;;;;;17.56;55.66;101183.73;1731440;82;21086;-55
2021/11/03 06:41:38;;;;;;;32.15;27.98;;;;;;;17.54;55.59;101185.13;1732780;82;21034;-55
2021/11/03 06:44:05;;;;;;;32.70;27.87;;;;;;;17.50;55.42;101182.23;1738303;82;20991;-51
2021/11/03 06:46:32;;;;;;;33.48;28.27;;;;;;;17.47;55.71;101187.62;1735367;82;21068;-53
2021/11/03 06:49:00;;;;;;;30.95;27.67;;;;;;;17.44;55.64;101199.58;1735251;82;21030;-53
2021/11/03 06:51:27;;;;;;;30.50;27.30;;;;;;;17.43;55.95;101212.35;1730358;82;21521;-55
2021/11/03 06:53:53;;;;;;;33.45;28.65;;;;;;;17.42;56.21;101218.52;1734021;82;21026;-54
2021/11/03 06:56:19;;;;;;;32.58;27.90;;;;;;;17.43;56.23;101217.61;1734535;82;21042;-54
2021/11/03 06:58:46;;;;;;;32.60;28.23;;;;;;;17.45;56.18;101226.30;1728240;82;21058;-53
2021/11/03 07:01:12;;;;;;;33.25;27.87;;;;;;;17.45;56.11;101242.08;1729552;82;21077;-51
2021/11/03 07:03:42;;;;;;;31.87;28.30;;;;;;;17.46;56.10;101238.52;1725380;82;21050;-52
2021/11/03 07:06:10;;;;;;;30.75;27.55;;;;;;;17.47;56.11;101244.19;1732210;82;21015;-53
2021/11/03 07:08:37;;;;;;;32.00;27.95;;;;;;;17.48;56.20;101245.88;1729378;82;21515;-51
2021/11/03 07:11:05;;;;;;;30.92;27.62;;;;;;;17.52;56.25;101239.59;1715209;82;21058;-54
2021/11/03 07:13:31;;;;;;;31.87;27.25;;;;;;;17.56;56.26;101240.31;1728528;82;20995;-52
2021/11/03 07:15:59;;;;;;;34.08;28.55;;;;;;;17.60;55.97;101243.20;1725554;82;21039;-51
2021/11/03 07:18:26;;;;;;;30.57;26.48;;;;;;;17.62;56.09;101247.98;1727214;82;21071;-57
2021/11/03 07:20:53;;;;;;;30.27;26.82;;;;;;;17.65;55.98;101243.42;1727348;82;21046;-52
2021/11/03 07:23:21;;;;;;;32.60;28.83;;;;;;;17.69;55.81;101248.95;1727209;82;21011;-54
2021/11/03 07:25:48;;;;;;;29.92;26.75;;;;;;;17.72;55.86;101244.85;1729665;82;21038;-51
2021/11/03 07:28:15;;;;;;;32.93;27.22;;;;;;;17.76;55.79;101234.58;1730349;82;21033;-55
2021/11/03 07:30:41;;;;;;;29.45;26.17;;;;;;;17.82;55.92;101236.12;1729314;82;21093;-57
2021/11/03 07:33:09;;;;;;;28.35;25.45;;;;;;;17.87;55.78;101248.14;1727942;82;21058;-52
2021/11/03 07:35:36;;;;;;;26.85;24.15;;;;;;;17.93;55.67;101247.50;1729576;82;21554;-55
2021/11/03 07:38:04;;;;;;;27.60;24.70;;;;;;;17.97;55.16;101241.17;1661956;86;21604;-55
2021/11/03 07:40:35;;;;;;;26.62;23.75;;;;;;;18.00;54.92;101247.14;1666278;85;21070;-55
2021/11/03 07:43:03;;;;;;;26.37;23.62;;;;;;;18.03;54.94;101250.98;1673348;85;21563;-54
2021/11/03 07:45:31;;;;;;;25.97;23.22;;;;;;;18.06;54.67;101255.23;1733040;82;20994;-55
2021/11/03 07:47:58;;;;;;;26.00;23.27;;;;;;;18.09;54.51;101247.20;1732319;82;21561;-56
2021/11/03 07:50:28;;;;;;;24.32;21.87;;;;;;;18.10;54.28;101251.53;1732507;82;21031;-56
2021/11/03 07:52:56;;;;;;;24.43;21.68;;;;;;;18.10;54.01;101253.71;1732351;82;21566;-51
2021/11/03 07:55:23;;;;;;;25.52;22.90;;;;;;;18.08;53.90;101259.51;1732591;82;21074;-53
2021/11/03 07:57:49;;;;;;;25.25;22.55;;;;;;;18.11;54.16;101263.79;1734870;82;21003;-55
2021/11/03 08:00:24;;;;;;;25.60;22.60;;;;;;;18.17;54.43;101263.52;1735506;82;21038;-54
2021/11/03 08:02:51;;;;;;;26.40;23.57;;;;;;;18.24;54.22;101263.61;1732490;82;21011;-54
2021/11/03 08:05:17;;;;;;;24.50;21.95;;;;;;;18.32;54.26;101273.38;1732224;82;21007;-56
2021/11/03 08:07:44;;;;;;;24.85;22.25;;;;;;;18.40;54.40;101277.83;1722880;82;21022;-54
2021/11/03 08:10:16;;;;;;;24.75;21.62;;;;;;;18.47;54.32;101278.81;1731577;82;21058;-54
2021/11/03 08:12:43;;;;;;;21.57;19.42;;;;;;;18.56;53.97;101282.36;1731882;82;21491;-53
2021/11/03 08:15:10;;;;;;;23.18;20.68;;;;;;;18.59;53.39;101283.97;1735639;82;21078;-53
2021/11/03 08:17:37;;;;;;;22.80;20.40;;;;;;;18.59;53.36;101291.42;1734945;82;21471;-50
2021/11/03 08:20:07;;;;;;;22.00;19.80;;;;;;;18.65;53.41;101295.55;1732487;82;21547;-50
2021/11/03 08:22:36;;;;;;;21.30;19.20;;;;;;;18.70;52.81;101290.94;1732661;82;20983;-53
2021/11/03 08:25:03;;;;;;;23.27;20.50;;;;;;;18.73;52.91;101301.34;1732678;82;21035;-50
2021/11/03 08:27:30;;;;;;;22.77;20.40;;;;;;;18.77;53.20;101297.64;1732573;82;21003;-55
2021/11/03 08:29:56;;;;;;;23.27;20.77;;;;;;;18.80;53.53;101297.48;1732831;82;20995;-54
2021/11/03 08:32:31;;;;;;;22.45;20.12;;;;;;;18.85;53.40;101299.91;1729215;82;21010;-50
2021/11/03 08:34:57;;;;;;;22.25;19.95;;;;;;;18.89;53.46;101307.61;1735810;82;21007;-54
2021/11/03 08:37:31;;;;;;;21.55;19.27;;;;;;;18.92;53.28;101315.36;1735553;82;20994;-56
2021/11/03 08:39:58;;;;;;;23.35;20.82;;;;;;;18.96;52.84;101313.45;1735317;82;21015;-50
2021/11/03 08:42:25;;;;;;;20.52;18.15;;;;;;;19.02;52.87;101319.27;1727309;82;21555;-53
2021/11/03 08:44:52;;;;;;;21.25;19.00;;;;;;;19.06;52.38;101321.31;1730242;82;21054;-50
2021/11/03 08:47:18;;;;;;;21.75;19.42;;;;;;;19.09;52.23;101324.66;1725808;82;21043;-51
2021/11/03 08:49:44;;;;;;;22.95;18.50;;;;;;;19.14;51.87;101318.70;1727461;82;20963;-56
2021/11/03 08:52:11;;;;;;;21.05;18.80;;;;;;;19.19;51.82;101319.32;1727229;82;21082;-56
2021/11/03 08:54:38;;;;;;;20.70;18.50;;;;;;;19.24;51.82;101324.38;1727319;82;21047;-53
2021/11/03 08:57:07;;;;;;;21.40;19.07;;;;;;;19.29;51.79;101331.59;1733069;82;21038;-54
2021/11/03 08:59:33;;;;;;;22.87;19.70;;;;;;;19.33;51.68;101332.73;1738541;82;21503;-50
2021/11/03 09:02:00;;;;;;;22.02;19.73;;;;;;;19.38;51.63;101329.88;1737521;82;21850;-53
2021/11/03 09:04:26;;;;;;;23.10;20.65;;;;;;;19.41;51.86;101333.20;1736147;82;21002;-54
2021/11/03 09:06:53;;;;;;;22.32;19.82;;;;;;;19.44;51.96;101335.71;1737808;82;21025;-51
2021/11/03 09:09:19;;;;;;;22.60;20.40;;;;;;;19.49;51.82;101336.32;1733312;82;21037;-51
2021/11/03 09:11:50;;;;;;;23.70;21.25;;;;;;;19.55;51.79;101339.61;1740833;82;20999;-51
2021/11/03 09:14:14;;;;;;;23.73;21.23;;;;;;;19.58;51.80;101336.83;1732677;82;21039;-50
2021/11/03 09:16:40;;;;;;;22.67;20.27;;;;;;;19.63;51.67;101341.39;1722717;82;20994;-52
2021/11/03 09:19:06;;;;;;;22.80;20.48;;;;;;;19.66;51.70;101335.98;1738653;82;21493;-50
2021/11/03 09:21:33;;;;;;;22.58;20.17;;;;;;;19.71;51.66;101333.95;1738495;82;21003;-52
2021/11/03 09:23:59;;;;;;;21.85;19.52;;;;;;;19.77;51.15;101341.55;1735449;82;21562;-52
2021/11/03 09:26:26;;;;;;;21.42;19.23;;;;;;;19.81;50.74;101340.01;1735284;82;21086;-50
2021/11/03 09:28:54;;;;;;;21.65;19.50;;;;;;;19.81;50.39;101342.65;1735430;82;21019;-54
2021/11/03 09:31:21;;;;;;;24.65;21.37;;;;;;;19.79;50.55;101339.69;1735850;82;21084;-49
2021/11/03 09:33:48;;;;;;;23.75;21.07;;;;;;;19.79;50.57;101346.30;1735695;82;21038;-51
2021/11/03 09:36:19;;;;;;;22.45;20.08;;;;;;;19.79;50.78;101351.58;1738758;82;21511;-53
2021/11/03 09:38:46;;;;;;;;;;;;;;;19.82;50.92;101353.62;1741343;82;20998;-50
2021/11/03 09:41:24;;;;;;;22.30;18.82;;;;;;;19.85;50.84;101353.91;1737585;82;20134;-56
2021/11/03 09:44:18;;;;;;;23.52;19.92;;;;;;;19.87;50.46;101336.20;1743837;82;21026;-53
2021/11/03 09:46:49;;;;;;;22.60;20.27;;;;;;;19.89;50.57;101340.93;1711131;83;21034;-50
2021/11/03 09:49:32;;;;;;;22.62;20.25;;;;;;;19.93;50.48;101355.69;1710755;84;20975;-50
2021/11/03 09:52:05;;;;;;;22.77;20.37;;;;;;;19.97;50.31;101353.31;1709679;84;21039;-53
2021/11/03 09:54:35;;;;;;;22.45;20.08;;;;;;;20.02;50.37;101355.23;1642015;86;21091;-53
2021/11/03 09:57:30;;;;;;;22.70;20.40;;;;;;;20.04;50.44;101358.65;1643833;86;21076;-50
2021/11/03 10:00:21;;;;;;;23.27;20.88;;;;;;;20.07;50.42;101351.41;1645319;86;21536;-53
2021/11/03 10:03:20;;;;;;;22.75;20.02;;;;;;;20.09;50.22;101350.04;1586912;90;21042;-50
2021/11/03 10:06:04;;;;;;;22.40;19.50;;;;;;;20.13;50.29;101357.70;1569370;90;21574;-55
2021/11/03 10:08:34;;;;;;;23.05;20.75;;;;;;;20.19;50.35;101353.91;1578703;90;21126;-53
2021/11/03 10:11:04;;;;;;;22.48;20.17;;;;;;;20.24;50.24;101352.76;1584176;90;21073;-56
2021/11/03 10:13:35;;;;;;;22.17;19.87;;;;;;;20.30;50.26;101356.86;1586964;90;21081;-53
2021/11/03 10:16:19;;;;;;;24.97;20.47;;;;;;;20.37;50.04;101356.94;1587218;90;21113;-51
2021/11/03 10:19:15;;;;;;;22.70;20.30;;;;;;;20.42;50.07;101361.53;1583855;90;21837;-53
2021/11/03 10:21:49;;;;;;;23.10;20.17;;;;;;;20.43;49.59;101363.22;1586903;90;21062;-50
2021/11/03 10:24:24;;;;;;;20.62;18.55;;;;;;;20.43;49.68;101373.80;1568361;91;21107;-57
2021/11/03 10:27:11;;;;;;;21.90;19.30;;;;;;;20.44;49.97;101370.23;1544465;92;21626;-51
2021/11/03 10:29:42;;;;;;;23.55;19.62;;;;;;;20.48;49.84;101365.63;1516099;94;21068;-53
2021/11/03 10:32:17;;;;;;;20.90;18.80;;;;;;;20.50;49.67;101375.20;1516982;94;21531;-55
2021/11/03 10:34:48;;;;;;;23.65;20.48;;;;;;;20.54;49.72;101371.45;1517118;94;21861;-57
2021/11/03 10:37:22;;;;;;;21.80;19.52;;;;;;;20.58;49.63;101374.31;1511545;94;21114;-52
2021/11/03 10:39:58;;;;;;;20.97;18.80;;;;;;;20.62;49.66;101373.22;1492118;95;21098;-54
2021/11/03 10:42:49;;;;;;;22.42;19.95;;;;;;;20.67;49.81;101380.42;1523920;93;21142;-53
2021/11/03 10:45:27;;;;;;;21.52;19.37;;;;;;;20.72;49.79;101371.78;1550565;92;21059;-51
2021/11/03 10:48:09;;;;;;;20.15;18.05;;;;;;;20.77;49.66;101374.19;1549337;92;21102;-52
2021/11/03 10:50:59;;;;;;;21.15;19.05;;;;;;;20.81;49.51;101374.41;1529910;93;21546;-54
2021/11/03 10:53:37;;;;;;;23.73;19.27;;;;;;;20.84;49.40;101376.87;1518723;94;21169;-55
2021/11/03 10:56:16;;;;;;;22.22;19.92;;;;;;;20.84;49.27;101375.09;1495519;96;22239;-58
2021/11/03 10:59:02;;;;;;;20.55;18.32;;;;;;;20.90;49.12;101381.36;1513058;93;21114;-52
2021/11/03 11:01:36;;;;;;;21.77;19.48;;;;;;;20.93;48.96;101377.24;1511746;94;21619;-51
2021/11/03 11:04:23;;;;;;;19.85;17.85;;;;;;;20.97;48.86;101374.81;1514246;94;21123;-58
2021/11/03 11:07:00;;;;;;;21.30;19.10;;;;;;;20.99;48.58;101386.16;1511733;94;21130;-54
2021/11/03 11:09:36;;;;;;;21.55;19.27;;;;;;;21.02;48.47;101378.08;1514766;94;21534;-52
2021/11/03 11:12:32;;;;;;;21.05;18.92;;;;;;;21.03;48.40;101378.48;1515237;94;21094;-54
2021/11/03 11:15:22;;;;;;;19.30;17.40;;;;;;;21.04;48.22;101378.84;1507807;95;21145;-50
2021/11/03 11:18:05;;;;;;;20.05;18.02;;;;;;;21.00;48.17;101379.92;1507973;95;21136;-51
2021/11/03 11:20:43;;;;;;;19.57;17.57;;;;;;;21.00;48.39;101383.02;1513698;94;21150;-54
2021/11/03 11:23:40;;;;;;;19.30;17.37;;;;;;;21.00;48.36;101375.95;1523953;93;21561;-55